Santa Rita de Cassia, Brazil
Current Conditions -  °F | °C
As of 3:00 PM on Sunday 23 Nov 2014 (Local Time) from SBLE Reporting Station
Scattered Clouds Scattered Clouds  
Wind Chill: 90°   Ceiling: Unl
Heat Index: 90°   Visibility: 6mi
Dew Point: 61°   Wind: 3mph
Humidity: 38%   Direction: 150°SSE
Pressure: 29.94"   Gusts: NA
Location:  11.01°S, 44.52°W
Report Text: SBLE 231800Z 15003KT 9999 SCT040 32/16 Q1014
Loading
Personal Weather Stations






























Interactive Weather Map New forecast layout! Learn more

10-Day Weather Forecast

Advertisements
Track Severe Weather on mobile